Time;durP1;ratioP1;P1;durP2;ratioP2;P2;SDS_P1;SDS_P2;PMS_P1;PMS_P2;Temp;Humidity;BMP_temperature;BMP_pressure;BME280_temperature;BME280_humidity;BME280_pressure;Samples;Min_cycle;Max_cycle;Signal;HPM_P1;HPM_P2
2022/11/07 00:00:00;;;;;;;32.17;23.93;;;;;;;10.69;100.00;93040.66;5109557;28;20232;-72
2022/11/07 00:02:25;;;;;;;29.07;24.37;;;;;;;10.67;100.00;93031.53;5109093;28;20196;-72
2022/11/07 00:04:51;;;;;;;31.47;22.80;;;;;;;10.77;100.00;93037.50;5107929;28;20304;-72
2022/11/07 00:07:16;;;;;;;28.00;23.53;;;;;;;10.70;100.00;93041.44;5109832;28;20211;-72
2022/11/07 00:09:42;;;;;;;30.27;25.37;;;;;;;10.65;100.00;93034.41;5107127;28;20227;-72
2022/11/07 00:12:07;;;;;;;30.87;23.80;;;;;;;10.61;100.00;93041.25;5108516;28;20200;-71
2022/11/07 00:14:32;;;;;;;33.33;24.03;;;;;;;10.56;100.00;93048.28;5104947;28;20238;-71
2022/11/07 00:16:58;;;;;;;32.93;23.67;;;;;;;10.71;100.00;93054.22;5108039;28;20256;-72
2022/11/07 00:19:23;;;;;;;30.57;23.67;;;;;;;10.74;100.00;93043.25;5109221;28;20223;-72
2022/11/07 00:21:49;;;;;;;29.13;23.83;;;;;;;10.85;100.00;93044.78;5109437;28;20198;-72
2022/11/07 00:24:16;;;;;;;31.33;23.87;;;;;;;10.86;100.00;93035.88;5107501;28;20196;-72
2022/11/07 00:26:43;;;;;;;27.80;23.70;;;;;;;10.85;100.00;93041.38;5108426;28;20215;-71
2022/11/07 00:29:13;;;;;;;31.73;23.57;;;;;;;10.84;100.00;93037.19;5107755;28;20184;-72
2022/11/07 00:31:38;;;;;;;27.90;22.87;;;;;;;10.89;100.00;93039.78;5107060;28;20191;-71
2022/11/07 00:34:03;;;;;;;29.20;23.23;;;;;;;10.89;100.00;93034.56;5106159;28;20192;-72
2022/11/07 00:36:29;;;;;;;26.43;22.53;;;;;;;10.85;100.00;93039.53;5106890;28;20221;-72
2022/11/07 00:38:54;;;;;;;29.10;22.40;;;;;;;10.87;100.00;93041.88;5108907;28;20192;-71
2022/11/07 00:41:21;;;;;;;29.73;22.00;;;;;;;10.94;100.00;93040.53;5108293;28;20247;-72
2022/11/07 00:43:47;;;;;;;26.27;22.17;;;;;;;10.87;100.00;93031.44;5107915;28;20265;-72
2022/11/07 00:46:14;;;;;;;29.93;22.93;;;;;;;10.92;100.00;93040.03;5107162;28;20228;-72
2022/11/07 00:48:39;;;;;;;28.93;22.30;;;;;;;10.91;100.00;93042.94;5108105;28;20261;-72
2022/11/07 00:51:17;;;;;;;28.43;23.33;;;;;;;11.02;100.00;93039.97;5106812;28;20766;-72
2022/11/07 00:53:43;;;;;;;31.77;22.37;;;;;;;11.15;100.00;93043.81;5107703;28;20278;-71
2022/11/07 00:56:11;;;;;;;28.60;22.17;;;;;;;11.25;98.65;93043.78;5107296;28;20219;-72
2022/11/07 00:58:37;;;;;;;28.53;21.67;;;;;;;10.96;99.19;93030.59;5107490;28;20231;-72
2022/11/07 01:01:11;;;;;;;27.53;22.57;;;;;;;11.08;99.37;93044.13;5105465;28;20230;-70
2022/11/07 01:06:21;;;;;;;28.07;21.83;;;;;;;11.03;99.34;93036.31;5107870;28;20223;-72
2022/11/07 01:08:47;;;;;;;28.77;22.40;;;;;;;11.04;100.00;93037.88;5107168;28;20188;-72
2022/11/07 01:11:12;;;;;;;29.93;22.73;;;;;;;10.82;100.00;93016.56;5107731;28;20214;-72
2022/11/07 01:13:38;;;;;;;28.20;22.57;;;;;;;10.84;100.00;93035.38;5108546;28;20318;-72
2022/11/07 01:16:04;;;;;;;30.77;22.53;;;;;;;10.63;100.00;93020.09;5109857;28;20312;-71
2022/11/07 01:18:30;;;;;;;28.67;22.97;;;;;;;10.65;100.00;93023.19;5111067;28;20180;-71
2022/11/07 01:20:55;;;;;;;30.13;23.67;;;;;;;10.54;100.00;93025.06;5110322;28;20230;-71
2022/11/07 01:23:21;;;;;;;30.43;22.77;;;;;;;10.49;100.00;93019.09;5112970;28;20205;-71
2022/11/07 01:25:47;;;;;;;30.03;22.13;;;;;;;10.42;100.00;93014.16;5111620;28;20240;-71
2022/11/07 01:28:13;;;;;;;30.63;22.87;;;;;;;10.33;100.00;93015.75;5112501;28;20220;-71
2022/11/07 01:30:42;;;;;;;29.17;23.57;;;;;;;10.22;100.00;92995.19;5111664;28;20226;-72
2022/11/07 01:33:09;;;;;;;29.30;23.60;;;;;;;10.11;100.00;92975.38;5110799;28;20189;-72
2022/11/07 01:35:35;;;;;;;25.90;21.30;;;;;;;10.34;100.00;93009.50;5110244;28;20239;-72
2022/11/07 01:38:02;;;;;;;26.93;20.93;;;;;;;10.28;100.00;93007.94;5112081;28;20250;-72
2022/11/07 01:40:27;;;;;;;26.60;20.47;;;;;;;10.16;100.00;92999.66;5111600;28;20224;-72
2022/11/07 01:42:53;;;;;;;25.83;21.00;;;;;;;10.10;99.82;92990.25;5111347;28;20206;-71
2022/11/07 01:45:23;;;;;;;25.80;20.30;;;;;;;10.14;100.00;93004.34;5110165;28;20497;-71
2022/11/07 01:47:51;;;;;;;28.87;21.37;;;;;;;10.02;99.94;92988.19;5112601;28;20188;-71
2022/11/07 01:50:17;;;;;;;26.73;21.90;;;;;;;9.94;100.00;93001.75;5111530;28;20283;-71
2022/11/07 01:52:46;;;;;;;24.80;19.90;;;;;;;10.06;97.89;92983.19;5111272;28;20184;-72
2022/11/07 01:55:35;;;;;;;23.73;20.70;;;;;;;10.10;98.05;92998.06;5110090;28;20215;-71
2022/11/07 01:58:04;;;;;;;25.67;20.73;;;;;;;9.88;97.74;92997.59;5111562;28;20196;-72
2022/11/07 02:00:31;;;;;;;30.50;21.10;;;;;;;9.87;96.87;92988.19;5111463;28;20228;-72
2022/11/07 02:03:09;;;;;;;28.80;21.73;;;;;;;10.25;98.78;93000.66;5110202;28;20200;-72
2022/11/07 02:05:53;;;;;;;27.80;22.63;;;;;;;10.20;100.00;93005.09;5111780;28;20236;-72
2022/11/07 02:08:20;;;;;;;32.93;24.07;;;;;;;9.80;100.00;93008.56;5112586;28;20180;-72
2022/11/07 02:10:46;;;;;;;29.13;23.53;;;;;;;9.42;100.00;93009.09;5111930;28;20243;-72
2022/11/07 02:13:17;;;;;;;34.47;23.03;;;;;;;9.33;100.00;93026.31;5110784;28;20194;-72
2022/11/07 02:15:42;;;;;;;25.37;21.33;;;;;;;9.36;100.00;93028.41;5109100;28;20255;-71
2022/11/07 02:18:08;;;;;;;23.37;20.67;;;;;;;9.42;100.00;93022.13;5111511;28;20184;-71
2022/11/07 02:20:33;;;;;;;25.93;21.50;;;;;;;9.23;100.00;93029.69;5110598;28;20235;-72
2022/11/07 02:23:05;;;;;;;25.37;22.50;;;;;;;9.45;100.00;93025.00;5108977;28;20176;-71
2022/11/07 02:25:31;;;;;;;31.33;23.10;;;;;;;9.26;100.00;93015.38;5111597;28;20224;-72
2022/11/07 02:28:00;;;;;;;28.83;22.47;;;;;;;9.08;100.00;92987.22;5109315;28;20195;-72
2022/11/07 02:30:29;;;;;;;27.60;21.93;;;;;;;9.26;100.00;93031.00;5109989;28;20219;-71
2022/11/07 02:32:55;;;;;;;29.80;21.83;;;;;;;9.11;100.00;93029.16;5111104;28;20203;-72
2022/11/07 02:35:44;;;;;;;28.27;21.83;;;;;;;9.02;100.00;93028.13;5110466;28;20235;-71
2022/11/07 02:38:24;;;;;;;33.70;22.43;;;;;;;9.02;100.00;93029.94;5110090;28;20184;-72
2022/11/07 02:40:55;;;;;;;32.87;23.60;;;;;;;8.77;100.00;93014.25;5111371;28;20291;-71
2022/11/07 02:43:25;;;;;;;25.80;20.83;;;;;;;8.78;100.00;93016.59;5109147;28;20893;-72
2022/11/07 02:45:52;;;;;;;27.07;22.77;;;;;;;8.67;100.00;92991.59;5109139;28;20224;-71
2022/11/07 02:48:18;;;;;;;26.83;21.23;;;;;;;8.83;100.00;93021.81;5109442;28;21730;-71
2022/11/07 02:50:43;;;;;;;26.50;21.33;;;;;;;8.62;100.00;93003.81;5108794;28;20272;-71
2022/11/07 02:53:09;;;;;;;31.73;23.97;;;;;;;8.38;100.00;92976.66;5108710;28;20237;-72
2022/11/07 02:55:34;;;;;;;24.63;21.07;;;;;;;8.57;100.00;92996.00;5108416;28;20370;-72
2022/11/07 02:57:59;;;;;;;28.43;20.87;;;;;;;8.57;100.00;93020.19;5105632;28;20192;-71
2022/11/07 03:00:25;;;;;;;23.47;20.97;;;;;;;8.43;100.00;93005.31;5109696;28;20247;-72
2022/11/07 03:02:50;;;;;;;22.00;18.77;;;;;;;8.40;100.00;93016.22;5109706;28;20230;-71
2022/11/07 03:05:18;;;;;;;20.73;18.33;;;;;;;8.47;100.00;93016.78;5108030;28;20216;-72
2022/11/07 03:07:45;;;;;;;24.27;17.43;;;;;;;8.42;100.00;93017.53;5106892;28;20191;-71
2022/11/07 03:10:10;;;;;;;21.10;16.97;;;;;;;8.25;100.00;93014.34;5107363;28;20231;-72
2022/11/07 03:12:36;;;;;;;22.23;17.07;;;;;;;8.31;100.00;93023.75;5106449;28;20211;-72
2022/11/07 03:15:03;;;;;;;19.60;17.50;;;;;;;8.24;100.00;93022.41;5108134;28;20228;-72
2022/11/07 03:17:28;;;;;;;18.70;16.97;;;;;;;8.17;100.00;93028.59;5109238;28;20256;-71
2022/11/07 03:19:54;;;;;;;20.60;17.87;;;;;;;8.04;100.00;93033.47;5100626;28;20220;-72
2022/11/07 03:22:19;;;;;;;23.33;16.87;;;;;;;8.26;100.00;93035.94;5086279;28;20185;-71
2022/11/07 03:24:44;;;;;;;19.07;17.20;;;;;;;8.18;100.00;93040.56;5093341;28;20270;-72
2022/11/07 03:27:10;;;;;;;21.77;18.80;;;;;;;8.12;100.00;93031.16;5097313;28;20227;-71
2022/11/07 03:29:35;;;;;;;20.13;17.97;;;;;;;8.08;100.00;93024.13;5100904;28;20255;-71
2022/11/07 03:32:01;;;;;;;20.63;18.43;;;;;;;7.83;100.00;92985.78;5099911;28;20192;-71
2022/11/07 03:34:26;;;;;;;20.83;18.73;;;;;;;8.12;100.00;93017.41;5100247;28;20228;-71
2022/11/07 03:36:51;;;;;;;20.50;18.47;;;;;;;7.98;100.00;93024.84;5097321;28;20184;-72
2022/11/07 03:39:17;;;;;;;20.63;17.73;;;;;;;7.88;100.00;92988.41;5098062;28;20173;-72
2022/11/07 03:41:42;;;;;;;18.77;16.77;;;;;;;8.12;100.00;93038.97;5087974;28;20626;-72
2022/11/07 03:44:08;;;;;;;19.40;17.60;;;;;;;8.14;100.00;93042.09;5089886;28;20259;-71
2022/11/07 03:46:33;;;;;;;19.03;16.73;;;;;;;8.12;100.00;93051.19;5108334;28;20216;-72
2022/11/07 03:48:58;;;;;;;20.57;17.87;;;;;;;8.16;100.00;93067.84;5108773;28;20233;-71
2022/11/07 03:51:24;;;;;;;19.27;17.23;;;;;;;8.07;100.00;93041.56;5106828;28;20227;-71
2022/11/07 03:53:49;;;;;;;20.43;17.30;;;;;;;8.11;100.00;93071.22;5110513;28;20700;-70
2022/11/07 03:56:15;;;;;;;20.23;17.37;;;;;;;8.07;100.00;93064.97;5107561;28;20250;-71
2022/11/07 03:58:40;;;;;;;29.67;18.00;;;;;;;8.14;100.00;93080.31;5109638;28;20207;-72
2022/11/07 04:01:06;;;;;;;21.23;19.00;;;;;;;8.23;100.00;93075.47;5108058;28;20335;-71
2022/11/07 04:03:31;;;;;;;18.57;16.70;;;;;;;8.09;100.00;93070.66;5108662;28;20184;-68
2022/11/07 04:05:57;;;;;;;22.90;18.33;;;;;;;8.19;100.00;93082.94;5107084;28;20323;-68
2022/11/07 04:08:23;;;;;;;24.70;18.70;;;;;;;8.02;100.00;93075.31;5109761;28;20249;-68
2022/11/07 04:10:49;;;;;;;23.77;19.20;;;;;;;7.76;100.00;93045.00;5107561;28;20224;-68
2022/11/07 04:18:42;;;;;;;23.10;20.10;;;;;;;8.00;100.00;93100.78;5108684;28;20195;-68
2022/11/07 04:21:08;;;;;;;25.20;19.97;;;;;;;8.01;100.00;93099.75;5090028;28;20284;-69
2022/11/07 04:23:33;;;;;;;28.97;21.57;;;;;;;8.07;100.00;93088.34;5089232;28;20204;-68
2022/11/07 04:28:43;;;;;;;24.27;20.00;;;;;;;8.01;100.00;93091.97;5109207;28;20213;-68
2022/11/07 04:31:08;;;;;;;20.17;17.57;;;;;;;8.09;100.00;93094.06;5106668;28;20212;-68
2022/11/07 04:33:33;;;;;;;28.43;18.70;;;;;;;8.06;100.00;93089.38;5107647;28;20200;-68
2022/11/07 04:35:59;;;;;;;24.50;20.03;;;;;;;8.20;100.00;93095.69;5106016;28;20224;-68
2022/11/07 04:38:24;;;;;;;21.67;19.47;;;;;;;8.29;100.00;93093.44;5109346;28;20188;-69
2022/11/07 04:40:54;;;;;;;24.10;20.40;;;;;;;8.29;100.00;93087.44;5105615;28;20218;-68
2022/11/07 04:43:19;;;;;;;23.63;17.70;;;;;;;8.37;100.00;93097.38;5106987;28;20246;-69
2022/11/07 04:45:44;;;;;;;23.83;17.93;;;;;;;8.24;100.00;93096.00;5108800;28;20243;-68
2022/11/07 04:48:11;;;;;;;22.80;19.90;;;;;;;8.34;100.00;93085.69;5105285;28;20266;-67
2022/11/07 04:50:37;;;;;;;18.53;16.73;;;;;;;8.38;100.00;93089.31;5108036;28;20223;-68
2022/11/07 04:53:03;;;;;;;20.57;18.47;;;;;;;8.40;100.00;93094.28;5105259;28;20179;-70
2022/11/07 04:55:29;;;;;;;19.47;17.40;;;;;;;8.49;100.00;93088.34;5107356;28;20239;-71
2022/11/07 04:57:55;;;;;;;20.43;18.43;;;;;;;8.39;100.00;93087.50;5101859;28;20576;-68
2022/11/07 05:00:21;;;;;;;20.13;17.27;;;;;;;8.63;100.00;93088.66;5108266;28;20250;-68
2022/11/07 05:02:48;;;;;;;21.17;18.30;;;;;;;8.70;100.00;93084.00;5107677;28;20252;-70
2022/11/07 05:05:14;;;;;;;22.00;19.70;;;;;;;8.70;100.00;93084.00;5108057;28;20215;-68
2022/11/07 05:07:39;;;;;;;24.70;19.03;;;;;;;8.67;100.00;93089.72;5106307;28;20195;-69
2022/11/07 05:10:06;;;;;;;25.20;19.47;;;;;;;8.70;100.00;93099.63;5107464;28;20249;-71
2022/11/07 05:12:31;;;;;;;23.50;19.40;;;;;;;8.72;100.00;93094.91;5106224;28;20189;-74
2022/11/07 05:14:57;;;;;;;28.00;22.57;;;;;;;8.75;100.00;93091.81;5100646;28;20292;-68
2022/11/07 05:17:23;;;;;;;28.73;22.00;;;;;;;8.88;100.00;93097.34;5086642;28;20177;-70
2022/11/07 05:19:48;;;;;;;32.30;22.90;;;;;;;8.99;100.00;93103.34;5086424;28;20224;-69
2022/11/07 05:24:58;;;;;;;32.87;22.67;;;;;;;9.33;100.00;93114.91;5086698;28;20315;-68
2022/11/07 05:27:24;;;;;;;33.13;24.33;;;;;;;9.47;100.00;93114.16;5086882;28;20204;-68
2022/11/07 05:29:49;;;;;;;31.97;22.87;;;;;;;9.48;100.00;93105.28;5089932;28;20224;-69
2022/11/07 05:32:15;;;;;;;29.07;23.50;;;;;;;9.64;100.00;93116.50;5096554;28;20189;-70
2022/11/07 05:34:40;;;;;;;30.20;23.30;;;;;;;9.75;100.00;93118.88;5096482;28;20801;-72
2022/11/07 05:37:10;;;;;;;38.27;25.50;;;;;;;9.91;100.00;93124.06;5098115;28;20193;-71
2022/11/07 05:39:36;;;;;;;33.53;23.63;;;;;;;10.11;100.00;93130.09;5090366;28;20236;-71
2022/11/07 05:42:01;;;;;;;33.73;24.60;;;;;;;10.21;100.00;93137.91;5093203;28;20321;-71
2022/11/07 05:44:28;;;;;;;32.40;24.53;;;;;;;10.49;98.26;93139.94;5096313;28;20232;-71
2022/11/07 05:46:55;;;;;;;33.23;23.50;;;;;;;10.44;98.04;93141.78;5095627;28;20308;-72
2022/11/07 05:49:20;;;;;;;31.20;23.13;;;;;;;10.45;98.06;93151.19;5099010;28;20173;-71
2022/11/07 05:51:45;;;;;;;27.50;22.03;;;;;;;10.52;97.52;93149.84;5099675;28;20194;-71
2022/11/07 05:54:11;;;;;;;37.17;24.57;;;;;;;10.61;96.81;93145.69;5097997;28;20189;-72
2022/11/07 05:56:37;;;;;;;30.70;23.47;;;;;;;10.73;95.91;93155.81;5096742;28;20178;-71
2022/11/07 05:59:05;;;;;;;33.70;22.90;;;;;;;10.73;95.51;93146.16;5097127;28;20203;-71
2022/11/07 06:01:31;;;;;;;36.27;24.03;;;;;;;10.85;95.20;93159.69;5096931;28;20220;-71
2022/11/07 06:03:56;;;;;;;35.63;23.13;;;;;;;10.89;94.77;93160.75;5100558;28;20189;-71
2022/11/07 06:06:22;;;;;;;31.03;23.27;;;;;;;10.90;94.76;93161.50;5099819;28;20240;-70
2022/11/07 06:08:47;;;;;;;35.60;24.60;;;;;;;11.05;94.61;93157.00;5097542;28;20203;-69
2022/11/07 06:11:12;;;;;;;29.97;24.23;;;;;;;11.14;94.47;93159.84;5106403;28;20251;-69
2022/11/07 06:13:38;;;;;;;34.00;25.30;;;;;;;11.22;93.99;93172.38;5112240;28;20188;-71
2022/11/07 06:16:04;;;;;;;42.87;26.33;;;;;;;11.19;93.71;93168.44;5110397;28;20231;-69
2022/11/07 06:18:29;;;;;;;31.47;24.60;;;;;;;11.27;94.67;93172.31;5111194;28;20218;-69
2022/11/07 06:20:55;;;;;;;28.73;23.57;;;;;;;11.18;94.77;93174.72;5109512;28;20220;-68
2022/11/07 06:23:20;;;;;;;31.57;23.17;;;;;;;11.26;93.94;93182.03;5108292;28;20192;-68
2022/11/07 06:25:46;;;;;;;35.30;23.90;;;;;;;11.12;94.46;93170.56;5109999;28;20322;-69
2022/11/07 06:28:12;;;;;;;35.87;24.30;;;;;;;11.13;95.71;93182.59;5109159;28;20204;-69
2022/11/07 06:30:38;;;;;;;37.67;26.13;;;;;;;11.15;96.10;93174.47;5108716;28;20296;-71
2022/11/07 06:33:11;;;;;;;36.57;25.53;;;;;;;11.22;95.49;93175.75;5109473;28;20195;-70
2022/11/07 06:35:36;;;;;;;31.17;23.07;;;;;;;11.26;95.64;93184.63;5108499;28;20224;-69
2022/11/07 06:38:10;;;;;;;35.37;25.47;;;;;;;11.36;95.61;93186.41;5109729;28;20209;-69
2022/11/07 06:40:37;;;;;;;33.73;26.07;;;;;;;11.39;95.62;93181.41;5108020;28;20215;-68
2022/11/07 06:43:16;;;;;;;34.37;24.33;;;;;;;11.61;95.11;93194.13;5109540;28;20259;-69
2022/11/07 06:45:43;;;;;;;35.77;24.23;;;;;;;11.73;94.12;93201.69;5110716;28;20225;-69
2022/11/07 06:48:09;;;;;;;40.57;26.90;;;;;;;11.73;93.99;93199.84;5109655;28;20199;-68
2022/11/07 06:50:35;;;;;;;41.13;26.70;;;;;;;11.29;96.90;93196.38;5108574;28;20236;-67
2022/11/07 06:53:03;;;;;;;33.13;25.40;;;;;;;11.40;96.70;93200.50;5110749;28;20172;-68
2022/11/07 06:55:28;;;;;;;35.47;23.87;;;;;;;11.55;96.36;93197.81;5107656;28;20826;-68
2022/11/07 06:57:58;;;;;;;35.90;24.93;;;;;;;11.78;94.95;93215.50;5111593;28;20180;-68
2022/11/07 07:00:23;;;;;;;41.43;26.03;;;;;;;11.45;97.30;93194.47;5110651;28;20240;-68
2022/11/07 07:02:48;;;;;;;34.57;25.63;;;;;;;11.38;97.52;93205.22;5110418;28;20214;-66
2022/11/07 07:05:14;;;;;;;49.40;27.57;;;;;;;11.43;97.71;93212.25;5109716;28;20208;-69
2022/11/07 07:07:39;;;;;;;39.07;26.47;;;;;;;11.54;96.12;93219.00;5105690;28;20192;-68
2022/11/07 07:10:05;;;;;;;33.60;25.27;;;;;;;11.52;97.18;93218.50;5109788;28;20295;-66
2022/11/07 07:12:30;;;;;;;33.43;25.17;;;;;;;11.62;97.13;93210.59;5109282;28;20193;-68
2022/11/07 07:14:56;;;;;;;35.07;25.70;;;;;;;11.64;96.47;93205.91;5109577;28;20296;-68
2022/11/07 07:17:21;;;;;;;37.30;26.17;;;;;;;11.46;97.04;93204.66;5108842;28;20275;-68
2022/11/07 07:19:46;;;;;;;37.37;26.83;;;;;;;11.62;96.52;93221.06;5108237;28;20243;-69
2022/11/07 07:22:12;;;;;;;48.33;26.23;;;;;;;11.30;96.35;93174.41;5106758;28;20184;-71
2022/11/07 07:24:38;;;;;;;34.67;25.00;;;;;;;11.69;96.44;93221.59;5109056;28;20306;-68
2022/11/07 07:27:04;;;;;;;38.07;26.17;;;;;;;11.50;100.00;93212.75;5105200;28;20211;-71
2022/11/07 07:29:29;;;;;;;38.00;25.10;;;;;;;11.85;97.75;93228.28;5108280;28;20227;-71
2022/11/07 07:31:54;;;;;;;36.37;25.40;;;;;;;12.03;95.41;93222.44;5106980;28;20572;-70
2022/11/07 07:34:20;;;;;;;36.27;24.53;;;;;;;11.85;96.18;93228.28;5108539;28;20241;-70
2022/11/07 07:36:45;;;;;;;31.53;25.83;;;;;;;11.76;96.32;93229.91;5107542;28;20194;-70
2022/11/07 07:39:10;;;;;;;35.47;26.00;;;;;;;11.87;97.07;93236.66;5108676;28;20188;-72
2022/11/07 07:41:36;;;;;;;149.50;76.67;;;;;;;12.06;94.94;93234.97;5090143;28;20202;-70
2022/11/07 07:44:01;;;;;;;43.00;29.77;;;;;;;11.91;94.87;93232.44;5089938;28;20200;-67
2022/11/07 07:46:26;;;;;;;39.03;26.90;;;;;;;12.16;93.85;93233.06;5098257;28;20258;-68
2022/11/07 07:48:52;;;;;;;35.83;26.40;;;;;;;12.44;92.56;93228.91;5097006;28;20219;-67
2022/11/07 07:51:17;;;;;;;37.00;27.47;;;;;;;12.46;91.56;93232.06;5088485;28;20229;-67
2022/11/07 07:53:42;;;;;;;38.93;26.97;;;;;;;12.41;91.58;93229.47;5088997;28;20195;-68
2022/11/07 07:56:08;;;;;;;34.63;26.97;;;;;;;12.55;90.98;93230.41;5104452;28;20265;-67
2022/11/07 07:58:33;;;;;;;43.70;28.33;;;;;;;12.65;90.97;93225.84;5108806;28;20184;-67
2022/11/07 08:00:59;;;;;;;39.20;26.83;;;;;;;12.82;89.40;93217.59;5107062;28;20239;-68
2022/11/07 08:03:25;;;;;;;46.27;27.37;;;;;;;12.90;89.82;93237.97;5106539;28;20191;-67
2022/11/07 08:05:56;;;;;;;46.37;26.90;;;;;;;13.09;88.58;93236.22;5108740;28;20307;-66
2022/11/07 08:08:22;;;;;;;43.03;26.10;;;;;;;13.27;87.58;93232.88;5107201;28;20192;-67
2022/11/07 08:10:52;;;;;;;40.03;24.37;;;;;;;13.33;86.17;93237.00;5107770;28;20231;-67
2022/11/07 08:13:20;;;;;;;36.77;25.03;;;;;;;13.39;87.29;93233.28;5110284;28;20187;-66
2022/11/07 08:15:45;;;;;;;35.37;25.20;;;;;;;13.60;87.04;93231.19;5107079;28;20235;-67
2022/11/07 08:18:10;;;;;;;35.20;24.43;;;;;;;13.71;85.58;93236.00;5108112;28;20200;-68
2022/11/07 08:20:36;;;;;;;37.10;24.83;;;;;;;13.82;84.84;93228.81;5096176;28;20249;-67
2022/11/07 08:23:04;;;;;;;34.70;24.40;;;;;;;13.72;83.97;93229.72;5088362;28;20209;-67
2022/11/07 08:25:30;;;;;;;31.03;23.40;;;;;;;13.76;84.65;93230.72;5099217;28;20231;-67
2022/11/07 08:27:55;;;;;;;37.67;25.13;;;;;;;13.88;84.92;93238.94;5109089;28;20214;-67
2022/11/07 08:30:21;;;;;;;36.03;25.13;;;;;;;13.82;85.07;93231.44;5106900;28;20336;-67
2022/11/07 08:32:47;;;;;;;38.20;25.77;;;;;;;13.80;84.88;93230.94;5107559;28;20205;-67
2022/11/07 08:35:12;;;;;;;40.40;26.97;;;;;;;13.58;86.33;93228.84;5106058;28;20223;-67
2022/11/07 08:37:37;;;;;;;34.17;23.70;;;;;;;13.66;86.64;93245.81;5107405;28;20172;-67
2022/11/07 08:40:03;;;;;;;32.20;25.97;;;;;;;13.69;85.96;93246.03;5108629;28;20230;-69
2022/11/07 08:42:28;;;;;;;35.10;25.47;;;;;;;13.58;85.85;93241.19;5108781;28;20187;-68
2022/11/07 08:44:54;;;;;;;37.80;24.47;;;;;;;13.59;86.00;93240.91;5107717;28;20292;-67
2022/11/07 08:47:19;;;;;;;33.77;24.23;;;;;;;13.75;86.49;93246.75;5107535;28;20261;-67
2022/11/07 08:49:45;;;;;;;38.03;25.30;;;;;;;13.86;85.96;93245.53;5108408;28;20245;-67
2022/11/07 08:52:10;;;;;;;31.63;23.43;;;;;;;14.01;84.10;93248.75;5107241;28;20199;-67
2022/11/07 08:54:35;;;;;;;32.07;23.83;;;;;;;13.97;84.08;93247.78;5107297;28;20228;-67
2022/11/07 08:57:01;;;;;;;32.90;23.80;;;;;;;14.09;83.37;93240.25;5104510;28;20176;-68
2022/11/07 08:59:28;;;;;;;32.87;22.87;;;;;;;14.09;83.39;93242.06;5107478;28;20224;-67
2022/11/07 09:01:53;;;;;;;32.37;23.90;;;;;;;13.79;84.17;93232.78;5107169;28;20210;-67
2022/11/07 09:04:19;;;;;;;37.50;24.10;;;;;;;13.83;85.43;93236.41;5105161;28;20187;-67
2022/11/07 09:06:44;;;;;;;34.40;23.83;;;;;;;13.91;84.55;93237.63;5107621;28;20270;-68
2022/11/07 09:09:09;;;;;;;32.90;22.83;;;;;;;13.89;83.66;93240.53;5106668;28;20274;-68
2022/11/07 09:11:35;;;;;;;34.63;23.10;;;;;;;13.67;83.50;93226.38;5108620;28;20195;-68
2022/11/07 09:14:00;;;;;;;31.60;22.17;;;;;;;13.66;84.31;93251.84;5108150;28;20192;-67
2022/11/07 09:16:25;;;;;;;32.63;23.23;;;;;;;13.74;84.20;93242.56;5086295;28;20223;-67
2022/11/07 09:18:51;;;;;;;32.30;22.73;;;;;;;13.83;83.77;93240.88;5089657;28;20204;-67
2022/11/07 09:21:17;;;;;;;31.93;21.63;;;;;;;13.74;83.15;93240.69;5106501;28;20231;-67
2022/11/07 09:23:42;;;;;;;29.77;22.37;;;;;;;13.14;82.13;93209.94;5106326;28;20184;-67
2022/11/07 09:26:08;;;;;;;31.30;21.90;;;;;;;13.34;82.29;93253.53;5108336;28;20224;-67
2022/11/07 09:28:34;;;;;;;26.13;20.57;;;;;;;13.31;83.30;93251.47;5107378;28;20992;-68
2022/11/07 09:31:01;;;;;;;30.63;21.97;;;;;;;13.50;81.94;93242.59;5105530;28;20212;-67
2022/11/07 09:33:27;;;;;;;34.03;21.43;;;;;;;13.54;81.34;93237.56;5106102;28;20216;-67
2022/11/07 09:35:53;;;;;;;23.67;20.70;;;;;;;13.67;79.72;93240.28;5108222;28;20227;-67
2022/11/07 09:38:19;;;;;;;27.63;21.43;;;;;;;13.68;80.33;93233.97;5109204;28;20183;-66
2022/11/07 09:40:53;;;;;;;23.43;20.60;;;;;;;13.84;78.97;93226.66;5110517;28;20208;-67
2022/11/07 09:43:32;;;;;;;26.70;21.00;;;;;;;13.77;79.06;93227.03;5111123;28;20208;-67
2022/11/07 09:46:08;;;;;;;25.40;20.27;;;;;;;13.85;78.42;93218.50;5095135;28;20240;-67
2022/11/07 09:48:43;;;;;;;32.43;20.03;;;;;;;14.05;78.29;93225.34;5090685;28;20958;-67
2022/11/07 09:51:19;;;;;;;27.90;20.40;;;;;;;13.92;77.50;93207.66;5089486;28;20253;-69
2022/11/07 09:53:50;;;;;;;29.13;21.07;;;;;;;14.04;78.23;93229.00;5091122;28;20212;-67
2022/11/07 09:56:15;;;;;;;21.40;18.93;;;;;;;14.07;77.11;93231.09;5106757;28;20238;-68
2022/11/07 09:58:43;;;;;;;23.07;19.63;;;;;;;14.20;75.33;93223.28;5112249;28;20192;-67
2022/11/07 10:01:15;;;;;;;24.33;18.70;;;;;;;14.20;75.09;93212.78;5110280;28;20283;-67
2022/11/07 10:03:41;;;;;;;26.10;18.97;;;;;;;14.31;74.72;93214.22;5112415;28;20195;-67
2022/11/07 10:06:18;;;;;;;24.43;19.40;;;;;;;14.36;74.40;93224.66;5108755;28;20224;-69
2022/11/07 10:09:05;;;;;;;23.07;19.90;;;;;;;14.39;75.08;93231.97;5111173;28;20179;-68
2022/11/07 10:11:36;;;;;;;24.63;19.70;;;;;;;14.31;74.25;93216.84;5110081;28;20677;-67
2022/11/07 10:14:12;;;;;;;25.70;19.07;;;;;;;14.52;74.34;93228.59;5111690;28;20200;-67
2022/11/07 10:16:46;;;;;;;24.00;20.23;;;;;;;14.47;75.50;93220.00;5109547;28;20203;-67
2022/11/07 10:19:25;;;;;;;27.50;20.43;;;;;;;14.55;75.84;93214.09;5109289;28;20180;-68
2022/11/07 10:22:05;;;;;;;29.90;20.40;;;;;;;14.33;76.00;93213.94;5111036;28;20191;-68
2022/11/07 10:24:58;;;;;;;24.60;20.23;;;;;;;14.20;77.35;93204.91;5108641;28;20275;-67
2022/11/07 10:27:25;;;;;;;22.07;19.70;;;;;;;14.20;77.31;93209.34;5110103;28;20287;-68
2022/11/07 10:29:53;;;;;;;25.60;21.13;;;;;;;14.19;77.03;93208.56;5109024;28;20228;-67
2022/11/07 10:32:19;;;;;;;28.83;19.40;;;;;;;14.33;77.18;93204.19;5109598;28;20175;-67
2022/11/07 10:34:56;;;;;;;25.27;18.97;;;;;;;14.41;76.34;93198.28;5109743;28;20299;-68
2022/11/07 10:37:23;;;;;;;22.03;19.67;;;;;;;14.24;76.86;93194.63;5109535;28;20204;-67
2022/11/07 10:39:48;;;;;;;23.77;19.93;;;;;;;14.40;76.15;93194.09;5109852;28;20211;-67
2022/11/07 10:42:18;;;;;;;24.50;19.60;;;;;;;14.26;77.65;93188.03;5109242;28;20239;-67
2022/11/07 10:44:44;;;;;;;20.37;18.07;;;;;;;14.29;78.04;93186.66;5111424;28;20243;-67
2022/11/07 10:47:18;;;;;;;30.20;20.63;;;;;;;14.33;78.35;93188.41;5107482;28;20203;-68
2022/11/07 10:49:58;;;;;;;22.57;18.77;;;;;;;14.38;77.50;93183.09;5111216;28;20231;-66
2022/11/07 10:52:25;;;;;;;24.23;18.70;;;;;;;14.45;77.58;93180.91;5111529;28;20192;-67
2022/11/07 10:54:50;;;;;;;25.87;18.53;;;;;;;14.42;77.51;93180.69;5110509;28;20755;-67
2022/11/07 10:57:22;;;;;;;26.67;19.83;;;;;;;14.38;77.71;93177.09;5110869;28;20184;-67
2022/11/07 10:59:50;;;;;;;22.70;17.60;;;;;;;14.32;78.55;93184.25;5109550;28;20232;-67
2022/11/07 11:02:43;;;;;;;26.13;19.57;;;;;;;14.47;77.63;93173.47;5106170;28;20183;-69
2022/11/07 11:05:24;;;;;;;25.83;20.03;;;;;;;14.47;77.57;93172.72;5108639;28;20242;-67
2022/11/07 11:07:50;;;;;;;21.60;19.30;;;;;;;14.36;77.24;93180.00;5107817;28;20181;-68
2022/11/07 11:10:17;;;;;;;24.80;19.50;;;;;;;14.13;78.92;93164.31;5110569;28;20224;-67
2022/11/07 11:12:47;;;;;;;24.37;18.73;;;;;;;14.38;78.32;93169.97;5110132;28;20184;-68
2022/11/07 11:15:18;;;;;;;25.97;18.63;;;;;;;14.34;78.42;93152.44;5109299;28;20236;-67
2022/11/07 11:17:44;;;;;;;26.07;19.47;;;;;;;14.53;77.55;93161.06;5108381;28;20287;-67
2022/11/07 11:20:41;;;;;;;22.27;19.10;;;;;;;14.77;75.50;93166.16;5108659;28;20243;-67
2022/11/07 11:23:18;;;;;;;24.90;20.07;;;;;;;14.54;76.89;93164.47;5101785;28;20252;-67
2022/11/07 11:25:46;;;;;;;25.80;21.23;;;;;;;14.52;77.70;93161.34;5108965;28;20244;-67
2022/11/07 11:28:22;;;;;;;21.90;18.10;;;;;;;14.74;76.60;93166.75;5110821;28;20188;-67
2022/11/07 11:30:56;;;;;;;23.00;19.40;;;;;;;14.76;75.78;93156.72;5105944;28;20208;-67